createdAt,value
2023-10-18T00:02:25.313Z,120.32
2023-10-18T00:12:27.225Z,116.10
2023-10-18T00:22:29.043Z,110.97
2023-10-18T00:32:30.986Z,122.10
2023-10-18T00:42:34.543Z,123.68
2023-10-18T00:52:36.604Z,101.38
2023-10-18T01:02:38.619Z,114.47
2023-10-18T01:12:40.624Z,111.85
2023-10-18T01:22:42.617Z,102.55
2023-10-18T01:32:44.922Z,90.40
2023-10-18T01:42:50.426Z,80.63
2023-10-18T01:52:52.848Z,86.18
2023-10-18T02:02:54.864Z,86.07
2023-10-18T02:12:57.170Z,82.55
2023-10-18T02:22:59.205Z,82.55
2023-10-18T02:33:01.339Z,89.35
2023-10-18T02:43:03.550Z,90.25
2023-10-18T02:53:05.474Z,83.38
2023-10-18T03:03:07.525Z,90.55
2023-10-18T03:13:09.574Z,95.57
2023-10-18T03:23:12.910Z,101.80
2023-10-18T03:33:17.672Z,102.38
2023-10-18T03:43:19.996Z,99.15
2023-10-18T03:53:22.317Z,102.65
2023-10-18T04:03:24.597Z,93.43
2023-10-18T04:13:27.194Z,63.45
2023-10-18T04:23:29.305Z,63.45
2023-10-18T04:33:31.949Z,53.60
2023-10-18T04:43:33.840Z,61.50
2023-10-18T04:53:35.803Z,57.67
2023-10-18T05:03:37.759Z,66.45
2023-10-18T05:13:39.751Z,54.60
2023-10-18T05:23:41.539Z,53.97
2023-10-18T05:33:43.526Z,70.20
2023-10-18T05:43:45.512Z,80.95
2023-10-18T05:53:47.474Z,72.47
2023-10-18T06:03:49.467Z,84.65
2023-10-18T06:13:51.637Z,103.10
2023-10-18T06:23:53.569Z,82.38
2023-10-18T06:33:55.848Z,77.18
2023-10-18T06:43:57.910Z,74.20
2023-10-18T06:54:00.801Z,63.30
2023-10-18T07:04:03.146Z,55.90
2023-10-18T07:14:05.294Z,47.90
2023-10-18T07:24:08.845Z,47.42
2023-10-18T07:34:13.065Z,47.20
2023-10-18T07:44:15.062Z,41.40
2023-10-18T07:54:18.173Z,44.13
2023-10-18T08:04:20.617Z,43.78
2023-10-18T08:14:22.665Z,35.78
2023-10-18T08:24:24.535Z,31.73
2023-10-18T08:34:26.461Z,29.73
2023-10-18T08:44:30.668Z,22.23
2023-10-18T08:54:35.181Z,26.25
2023-10-18T09:04:38.374Z,25.63
2023-10-18T09:14:40.528Z,20.40
2023-10-18T09:24:42.751Z,22.55
2023-10-18T09:34:44.754Z,17.95
2023-10-18T09:44:46.861Z,15.77
2023-10-18T09:54:50.529Z,12.73
2023-10-18T10:04:52.954Z,10.38
2023-10-18T10:14:54.993Z,12.25
2023-10-18T10:25:02.491Z,11.27
2023-10-18T10:35:11.421Z,12.95
2023-10-18T10:45:30.584Z,12.85
2023-10-18T10:55:35.520Z,9.70
2023-10-18T11:05:37.520Z,10.63
2023-10-18T11:15:39.627Z,8.30
2023-10-18T11:25:41.642Z,8.43
2023-10-18T11:35:48.584Z,9.95
2023-10-18T11:46:04.874Z,7.38
2023-10-18T11:56:07.553Z,5.43
2023-10-18T12:06:09.424Z,7.78
2023-10-18T12:16:11.356Z,9.75
2023-10-18T12:26:13.450Z,7.68
2023-10-18T12:36:15.455Z,10.25
2023-10-18T12:46:17.545Z,10.13
2023-10-18T12:56:19.526Z,9.95
2023-10-18T13:06:21.444Z,10.65
2023-10-18T13:16:23.375Z,9.57
2023-10-18T13:26:25.287Z,10.52
2023-10-18T13:36:27.202Z,8.25
2023-10-18T13:46:29.109Z,10.55
2023-10-18T13:56:32.141Z,8.15
2023-10-18T14:06:51.473Z,11.18
2023-10-18T14:16:56.526Z,7.60
2023-10-18T14:26:58.516Z,8.57
2023-10-18T14:37:00.429Z,7.68
2023-10-18T14:47:02.356Z,7.90
2023-10-18T14:57:04.474Z,9.35
2023-10-18T15:07:06.335Z,10.55
2023-10-18T15:17:08.411Z,10.02
2023-10-18T15:27:10.407Z,9.82
2023-10-18T15:37:12.544Z,9.07
2023-10-18T15:47:14.591Z,12.63
2023-10-18T15:57:16.492Z,19.27
2023-10-18T16:07:18.480Z,16.50
2023-10-18T16:17:20.523Z,17.48
2023-10-18T16:27:22.548Z,23.48
2023-10-18T16:37:24.488Z,22.98
2023-10-18T16:47:26.758Z,27.88
2023-10-18T16:57:28.789Z,38.42
2023-10-18T17:07:30.731Z,73.70
2023-10-18T17:17:33.005Z,54.15
2023-10-18T17:27:35.009Z,60.05
2023-10-18T17:37:46.628Z,55.83
2023-10-18T17:47:48.883Z,54.63
2023-10-18T17:57:53.637Z,76.05
2023-10-18T18:07:55.528Z,61.03
2023-10-18T18:17:57.717Z,57.65
2023-10-18T18:27:59.717Z,68.05
2023-10-18T18:38:01.781Z,68.38
2023-10-18T18:48:04.020Z,84.70
2023-10-18T18:58:06.142Z,112.82
2023-10-18T19:08:08.580Z,122.80
2023-10-18T19:18:10.729Z,120.85
2023-10-18T19:28:12.788Z,112.07
2023-10-18T19:38:14.820Z,100.50
2023-10-18T19:48:17.484Z,106.97
2023-10-18T19:58:19.415Z,108.30
2023-10-18T20:08:21.297Z,134.48
2023-10-18T20:18:23.617Z,168.15
2023-10-18T20:28:25.601Z,139.65
2023-10-18T20:38:27.695Z,137.52
2023-10-18T20:48:29.745Z,132.80
2023-10-18T20:58:31.745Z,119.47
2023-10-18T21:08:33.740Z,124.40
2023-10-18T21:18:43.232Z,128.02
2023-10-18T21:28:45.288Z,114.85
2023-10-18T21:38:47.414Z,117.07
2023-10-18T21:48:49.609Z,100.03
2023-10-18T21:58:51.682Z,112.30
2023-10-18T22:08:53.648Z,117.25
2023-10-18T22:18:55.582Z,128.38
2023-10-18T22:28:58.258Z,121.07
2023-10-18T22:39:00.346Z,126.35
2023-10-18T22:49:03.510Z,128.35
2023-10-18T22:59:05.498Z,112.82
2023-10-18T23:09:07.856Z,120.20
2023-10-18T23:19:09.855Z,106.30
2023-10-18T23:29:11.840Z,87.00
2023-10-18T23:39:13.798Z,82.82
2023-10-18T23:49:17.333Z,79.32
2023-10-18T23:59:19.227Z,68.25
